AAL1530 KSMF-KDEN
Flight info
| Callsign | AAL1530 |
|---|---|
| Flight time | 2h 2m |
| Altitude | 35000 |
| Route | SCTWN4 RALEY JSICA LUDOH BUMMP SSKII4 |
| Aircraft | A320/M-SDE3FGHIRWY/LB1 |
Departure
| Time | 2026-05-07 22:51 |
|---|---|
| Airport | Sacramento International Airport (KSMF) |
Arrival
| Time | 2026-05-08 00:53 |
|---|---|
| Airport | Denver International Airport (KDEN) |
| Time | Latitude | Longitude | Altitude | Speed | Heading |
|---|---|---|---|---|---|
| 2026-05-07 22:31 | 38.69523 | -121.59345 | 29 ft | 0 kts | 16° |
| 2026-05-07 22:35 | 38.69522 | -121.59345 | 29 ft | 0 kts | 16° |
| 2026-05-07 22:43 | 38.69510 | -121.59350 | 29 ft | 4 kts | 16° |
| 2026-05-07 22:43 | 38.69488 | -121.59358 | 29 ft | 2 kts | 15° |
| 2026-05-07 22:44 | 38.69465 | -121.59366 | 29 ft | 4 kts | 38° |
| 2026-05-07 22:44 | 38.69458 | -121.59382 | 29 ft | 4 kts | 68° |
| 2026-05-07 22:44 | 38.69444 | -121.59406 | 29 ft | 4 kts | 21° |
| 2026-05-07 22:44 | 38.69422 | -121.59412 | 29 ft | 0 kts | 4° |
| 2026-05-07 22:46 | 38.69434 | -121.59417 | 29 ft | 6 kts | 335° |
| 2026-05-07 22:47 | 38.69456 | -121.59510 | 29 ft | 13 kts | 276° |
| 2026-05-07 22:47 | 38.69461 | -121.59612 | 29 ft | 11 kts | 274° |
| 2026-05-07 22:47 | 38.69465 | -121.59700 | 29 ft | 9 kts | 271° |
| 2026-05-07 22:47 | 38.69466 | -121.59789 | 29 ft | 10 kts | 271° |
| 2026-05-07 22:48 | 38.69501 | -121.59862 | 29 ft | 11 kts | 341° |
| 2026-05-07 22:48 | 38.69589 | -121.59868 | 29 ft | 15 kts | 1° |
| 2026-05-07 22:48 | 38.69713 | -121.59863 | 29 ft | 20 kts | 2° |
| 2026-05-07 22:48 | 38.69870 | -121.59861 | 29 ft | 25 kts | 1° |
| 2026-05-07 22:49 | 38.70058 | -121.59858 | 29 ft | 29 kts | 0° |
| 2026-05-07 22:49 | 38.70272 | -121.59855 | 29 ft | 33 kts | 1° |
| 2026-05-07 22:49 | 38.70507 | -121.59850 | 29 ft | 36 kts | 1° |
| 2026-05-07 22:49 | 38.70704 | -121.59848 | 29 ft | 15 kts | 342° |
| 2026-05-07 22:50 | 38.70724 | -121.59992 | 28 ft | 20 kts | 271° |
| 2026-05-07 22:50 | 38.70687 | -121.60109 | 28 ft | 5 kts | 173° |
| 2026-05-07 22:50 | 38.70634 | -121.60111 | 29 ft | 10 kts | 183° |
| 2026-05-07 22:50 | 38.70422 | -121.60115 | 30 ft | 66 kts | 180° |
| 2026-05-07 22:51 | 38.69684 | -121.60127 | 27 ft | 143 kts | 181° |
| 2026-05-07 22:51 | 38.68552 | -121.60148 | 416 ft | 168 kts | 181° |
| 2026-05-07 22:51 | 38.67387 | -121.60073 | 1336 ft | 169 kts | 159° |
| 2026-05-07 22:51 | 38.66576 | -121.59054 | 2063 ft | 175 kts | 112° |
| 2026-05-07 22:52 | 38.66213 | -121.57523 | 2494 ft | 182 kts | 107° |
| 2026-05-07 22:52 | 38.65861 | -121.55998 | 3145 ft | 174 kts | 108° |
| 2026-05-07 22:52 | 38.65518 | -121.54520 | 3654 ft | 177 kts | 107° |
| 2026-05-07 22:52 | 38.65153 | -121.52894 | 3783 ft | 203 kts | 108° |
| 2026-05-07 22:53 | 38.64718 | -121.51080 | 4084 ft | 221 kts | 109° |
| 2026-05-07 22:53 | 38.64234 | -121.49206 | 4742 ft | 220 kts | 110° |
| 2026-05-07 22:53 | 38.63744 | -121.47407 | 5521 ft | 211 kts | 111° |
| 2026-05-07 22:53 | 38.63248 | -121.45643 | 6065 ft | 215 kts | 109° |
| 2026-05-07 22:54 | 38.63072 | -121.43692 | 6323 ft | 232 kts | 84° |
| 2026-05-07 22:54 | 38.63272 | -121.41594 | 6787 ft | 239 kts | 85° |
| 2026-05-07 22:54 | 38.63393 | -121.39528 | 7494 ft | 239 kts | 87° |
| 2026-05-07 22:54 | 38.63450 | -121.37298 | 7723 ft | 263 kts | 90° |
| 2026-05-07 22:55 | 38.63466 | -121.34872 | 7985 ft | 286 kts | 90° |
| 2026-05-07 22:55 | 38.63483 | -121.32271 | 8529 ft | 297 kts | 90° |
| 2026-05-07 22:55 | 38.63513 | -121.29595 | 8902 ft | 302 kts | 89° |
| 2026-05-07 22:55 | 38.63560 | -121.26896 | 9480 ft | 305 kts | 89° |
| 2026-05-07 22:56 | 38.63618 | -121.24166 | 10194 ft | 310 kts | 89° |
| 2026-05-07 22:56 | 38.63683 | -121.21351 | 10412 ft | 333 kts | 89° |
| 2026-05-07 22:56 | 38.63758 | -121.18279 | 10558 ft | 357 kts | 88° |
| 2026-05-07 22:56 | 38.63839 | -121.15035 | 10876 ft | 371 kts | 88° |
| 2026-05-07 22:57 | 38.63919 | -121.11706 | 11462 ft | 377 kts | 88° |
| 2026-05-07 22:57 | 38.64000 | -121.08338 | 12089 ft | 381 kts | 88° |
| 2026-05-07 22:57 | 38.64082 | -121.04940 | 12741 ft | 384 kts | 88° |
| 2026-05-07 22:57 | 38.64165 | -121.01508 | 13408 ft | 387 kts | 88° |
| 2026-05-07 22:58 | 38.64247 | -120.98060 | 14023 ft | 390 kts | 88° |
| 2026-05-07 22:58 | 38.64329 | -120.94578 | 14588 ft | 393 kts | 88° |
| 2026-05-07 22:58 | 38.64407 | -120.91111 | 15120 ft | 398 kts | 88° |
| 2026-05-07 22:58 | 38.64485 | -120.87563 | 15710 ft | 400 kts | 88° |
| 2026-05-07 22:59 | 38.64562 | -120.83998 | 16292 ft | 403 kts | 88° |
| 2026-05-07 22:59 | 38.64639 | -120.80404 | 16858 ft | 406 kts | 88° |
| 2026-05-07 22:59 | 38.64714 | -120.76788 | 17476 ft | 407 kts | 87° |
| 2026-05-07 22:59 | 38.64789 | -120.73153 | 18036 ft | 411 kts | 87° |
| 2026-05-07 23:00 | 38.64853 | -120.69485 | 18587 ft | 414 kts | 88° |
| 2026-05-07 23:00 | 38.64844 | -120.65796 | 19090 ft | 416 kts | 90° |
| 2026-05-07 23:00 | 38.64771 | -120.62074 | 19560 ft | 420 kts | 91° |
| 2026-05-07 23:00 | 38.64665 | -120.58380 | 20070 ft | 422 kts | 92° |
| 2026-05-07 23:01 | 38.64549 | -120.54614 | 20540 ft | 425 kts | 91° |
| 2026-05-07 23:01 | 38.64439 | -120.50821 | 21011 ft | 428 kts | 91° |
| 2026-05-07 23:01 | 38.64340 | -120.47009 | 21515 ft | 429 kts | 91° |
| 2026-05-07 23:01 | 38.64249 | -120.43178 | 21936 ft | 433 kts | 91° |
| 2026-05-07 23:02 | 38.64162 | -120.39314 | 22387 ft | 436 kts | 91° |
| 2026-05-07 23:02 | 38.64078 | -120.35430 | 22809 ft | 439 kts | 91° |
| 2026-05-07 23:02 | 38.63992 | -120.31516 | 23150 ft | 443 kts | 91° |
| 2026-05-07 23:02 | 38.63900 | -120.27571 | 23588 ft | 445 kts | 91° |
| 2026-05-07 23:03 | 38.63807 | -120.23665 | 23950 ft | 447 kts | 90° |
| 2026-05-07 23:03 | 38.63711 | -120.19680 | 24262 ft | 449 kts | 90° |
| 2026-05-07 23:03 | 38.63612 | -120.15683 | 24639 ft | 450 kts | 90° |
| 2026-05-07 23:03 | 38.63512 | -120.11678 | 24956 ft | 452 kts | 91° |
| 2026-05-07 23:04 | 38.63406 | -120.07643 | 25263 ft | 454 kts | 90° |
| 2026-05-07 23:04 | 38.63296 | -120.03607 | 25591 ft | 456 kts | 91° |
| 2026-05-07 23:04 | 38.63188 | -119.99543 | 25885 ft | 458 kts | 90° |
| 2026-05-07 23:04 | 38.63082 | -119.95466 | 26203 ft | 459 kts | 90° |
| 2026-05-07 23:05 | 38.62976 | -119.91436 | 26486 ft | 461 kts | 91° |
| 2026-05-07 23:05 | 38.62866 | -119.87336 | 26746 ft | 463 kts | 91° |
| 2026-05-07 23:05 | 38.62750 | -119.83220 | 27065 ft | 463 kts | 91° |
| 2026-05-07 23:05 | 38.62629 | -119.79095 | 27325 ft | 465 kts | 91° |
| 2026-05-07 23:06 | 38.62509 | -119.74957 | 27597 ft | 466 kts | 91° |
| 2026-05-07 23:06 | 38.62392 | -119.70815 | 27832 ft | 467 kts | 91° |
| 2026-05-07 23:06 | 38.62272 | -119.66656 | 28049 ft | 469 kts | 91° |
| 2026-05-07 23:06 | 38.62149 | -119.62486 | 28297 ft | 470 kts | 90° |
| 2026-05-07 23:07 | 38.62026 | -119.58358 | 28500 ft | 471 kts | 90° |
| 2026-05-07 23:07 | 38.61901 | -119.54163 | 28728 ft | 472 kts | 91° |
| 2026-05-07 23:07 | 38.61777 | -119.49976 | 29095 ft | 470 kts | 90° |
| 2026-05-07 23:07 | 38.61648 | -119.45803 | 29414 ft | 469 kts | 90° |
| 2026-05-07 23:08 | 38.61515 | -119.41639 | 29763 ft | 468 kts | 91° |
| 2026-05-07 23:08 | 38.61380 | -119.37487 | 30101 ft | 467 kts | 90° |
| 2026-05-07 23:08 | 38.61248 | -119.33343 | 30352 ft | 467 kts | 91° |
| 2026-05-07 23:08 | 38.61116 | -119.29199 | 30624 ft | 466 kts | 90° |
| 2026-05-07 23:09 | 38.60985 | -119.25063 | 30878 ft | 466 kts | 90° |
| 2026-05-07 23:09 | 38.60856 | -119.20926 | 31143 ft | 465 kts | 92° |
| 2026-05-07 23:09 | 38.60723 | -119.16857 | 31434 ft | 464 kts | 91° |
| 2026-05-07 23:09 | 38.60584 | -119.12735 | 31678 ft | 464 kts | 91° |
| 2026-05-07 23:10 | 38.60441 | -119.08631 | 31936 ft | 464 kts | 91° |
| 2026-05-07 23:10 | 38.60298 | -119.04521 | 32205 ft | 463 kts | 89° |
| 2026-05-07 23:10 | 38.60156 | -119.00416 | 32483 ft | 462 kts | 89° |
| 2026-05-07 23:10 | 38.60013 | -118.96312 | 32777 ft | 461 kts | 90° |
| 2026-05-07 23:11 | 38.59867 | -118.92219 | 33069 ft | 461 kts | 91° |
| 2026-05-07 23:11 | 38.59721 | -118.88132 | 33359 ft | 460 kts | 91° |
| 2026-05-07 23:11 | 38.59573 | -118.84055 | 33637 ft | 459 kts | 91° |
| 2026-05-07 23:11 | 38.59425 | -118.80031 | 33906 ft | 459 kts | 91° |
| 2026-05-07 23:12 | 38.59275 | -118.75956 | 34175 ft | 458 kts | 91° |
| 2026-05-07 23:12 | 38.59124 | -118.71888 | 34402 ft | 458 kts | 91° |
| 2026-05-07 23:12 | 38.58972 | -118.67820 | 34609 ft | 458 kts | 91° |
| 2026-05-07 23:12 | 38.58818 | -118.63756 | 34828 ft | 458 kts | 91° |
| 2026-05-07 23:13 | 38.58663 | -118.59692 | 35011 ft | 458 kts | 91° |
| 2026-05-07 23:13 | 38.58350 | -118.51527 | 35069 ft | 461 kts | 91° |
| 2026-05-07 23:14 | 38.58028 | -118.43383 | 35052 ft | 462 kts | 91° |
| 2026-05-07 23:14 | 38.57699 | -118.35188 | 35043 ft | 462 kts | 91° |
| 2026-05-07 23:15 | 38.57362 | -118.27003 | 35026 ft | 461 kts | 91° |
| 2026-05-07 23:15 | 38.57004 | -118.18824 | 35018 ft | 462 kts | 92° |
| 2026-05-07 23:16 | 38.56583 | -118.10700 | 35005 ft | 461 kts | 92° |
| 2026-05-07 23:16 | 38.56140 | -118.02526 | 35021 ft | 462 kts | 91° |
| 2026-05-07 23:17 | 38.55698 | -117.94335 | 35022 ft | 462 kts | 92° |
| 2026-05-07 23:17 | 38.55266 | -117.86143 | 35020 ft | 462 kts | 91° |
| 2026-05-07 23:18 | 38.54835 | -117.77950 | 35022 ft | 463 kts | 91° |
| 2026-05-07 23:18 | 38.54386 | -117.69749 | 35038 ft | 463 kts | 92° |
| 2026-05-07 23:19 | 38.53934 | -117.61617 | 35040 ft | 462 kts | 92° |
| 2026-05-07 23:19 | 38.53470 | -117.53430 | 35039 ft | 462 kts | 92° |
| 2026-05-07 23:20 | 38.53005 | -117.45250 | 35047 ft | 462 kts | 92° |
| 2026-05-07 23:20 | 38.52537 | -117.37063 | 35039 ft | 463 kts | 92° |
| 2026-05-07 23:21 | 38.52063 | -117.28925 | 35032 ft | 463 kts | 92° |
| 2026-05-07 23:21 | 38.51747 | -117.20717 | 35035 ft | 462 kts | 89° |
| 2026-05-07 23:22 | 38.51621 | -117.12504 | 35042 ft | 463 kts | 88° |
| 2026-05-07 23:22 | 38.51477 | -117.04292 | 35038 ft | 463 kts | 89° |
| 2026-05-07 23:23 | 38.51273 | -116.96079 | 35031 ft | 462 kts | 89° |
| 2026-05-07 23:23 | 38.51046 | -116.87933 | 35031 ft | 462 kts | 89° |
| 2026-05-07 23:24 | 38.50818 | -116.79742 | 35029 ft | 462 kts | 89° |
| 2026-05-07 23:24 | 38.50593 | -116.71538 | 35019 ft | 462 kts | 89° |
| 2026-05-07 23:25 | 38.50364 | -116.63342 | 35017 ft | 462 kts | 89° |
| 2026-05-07 23:25 | 38.50126 | -116.55199 | 35009 ft | 462 kts | 89° |
| 2026-05-07 23:26 | 38.49881 | -116.46998 | 35000 ft | 462 kts | 89° |
| 2026-05-07 23:26 | 38.49633 | -116.38798 | 34988 ft | 462 kts | 89° |
| 2026-05-07 23:27 | 38.49249 | -116.26510 | 34973 ft | 462 kts | 89° |
| 2026-05-07 23:27 | 38.48986 | -116.18374 | 34966 ft | 462 kts | 89° |
| 2026-05-07 23:28 | 38.48713 | -116.10191 | 34953 ft | 461 kts | 89° |
| 2026-05-07 23:28 | 38.48438 | -116.02013 | 34944 ft | 461 kts | 89° |
| 2026-05-07 23:29 | 38.48164 | -115.93846 | 34946 ft | 461 kts | 89° |
| 2026-05-07 23:29 | 38.47884 | -115.85671 | 34928 ft | 462 kts | 89° |
| 2026-05-07 23:30 | 38.47591 | -115.77536 | 34914 ft | 463 kts | 89° |
| 2026-05-07 23:30 | 38.47290 | -115.69323 | 34926 ft | 463 kts | 89° |
| 2026-05-07 23:31 | 38.46979 | -115.61119 | 34935 ft | 463 kts | 89° |
| 2026-05-07 23:31 | 38.46675 | -115.52958 | 34932 ft | 463 kts | 89° |
| 2026-05-07 23:32 | 38.46364 | -115.44747 | 34928 ft | 463 kts | 89° |
| 2026-05-07 23:32 | 38.46041 | -115.36538 | 34940 ft | 463 kts | 89° |
| 2026-05-07 23:33 | 38.45715 | -115.28362 | 34947 ft | 463 kts | 89° |
| 2026-05-07 23:33 | 38.45382 | -115.20161 | 34946 ft | 463 kts | 89° |
| 2026-05-07 23:34 | 38.45044 | -115.12024 | 34942 ft | 463 kts | 89° |
| 2026-05-07 23:34 | 38.44699 | -115.03825 | 34940 ft | 463 kts | 89° |
| 2026-05-07 23:35 | 38.44351 | -114.95631 | 34950 ft | 463 kts | 89° |
| 2026-05-07 23:35 | 38.43991 | -114.87430 | 34947 ft | 463 kts | 89° |
| 2026-05-07 23:36 | 38.43635 | -114.79275 | 34943 ft | 464 kts | 89° |
| 2026-05-07 23:36 | 38.43271 | -114.71064 | 34947 ft | 464 kts | 89° |
| 2026-05-07 23:37 | 38.42894 | -114.62860 | 34953 ft | 463 kts | 90° |
| 2026-05-07 23:37 | 38.42518 | -114.54664 | 34961 ft | 463 kts | 90° |
| 2026-05-07 23:38 | 38.42136 | -114.46477 | 34966 ft | 462 kts | 90° |
| 2026-05-07 23:38 | 38.41742 | -114.38349 | 34976 ft | 462 kts | 90° |
| 2026-05-07 23:39 | 38.41346 | -114.30196 | 34967 ft | 462 kts | 90° |
| 2026-05-07 23:39 | 38.40953 | -114.22017 | 34961 ft | 462 kts | 90° |
| 2026-05-07 23:40 | 38.40549 | -114.13841 | 34957 ft | 462 kts | 90° |
| 2026-05-07 23:40 | 38.40138 | -114.05721 | 34971 ft | 462 kts | 90° |
| 2026-05-07 23:41 | 38.39720 | -113.97545 | 34960 ft | 462 kts | 90° |
| 2026-05-07 23:41 | 38.39296 | -113.89369 | 34956 ft | 462 kts | 90° |
| 2026-05-07 23:42 | 38.38865 | -113.81192 | 34951 ft | 462 kts | 90° |
| 2026-05-07 23:42 | 38.38439 | -113.73075 | 34954 ft | 462 kts | 90° |
| 2026-05-07 23:43 | 38.38003 | -113.64895 | 34948 ft | 463 kts | 90° |
| 2026-05-07 23:43 | 38.37561 | -113.56714 | 34938 ft | 463 kts | 90° |
| 2026-05-07 23:44 | 38.37103 | -113.48524 | 34929 ft | 463 kts | 90° |
| 2026-05-07 23:44 | 38.36642 | -113.40333 | 34963 ft | 464 kts | 90° |
| 2026-05-07 23:45 | 38.36177 | -113.32188 | 34981 ft | 464 kts | 90° |
| 2026-05-07 23:45 | 38.35704 | -113.23980 | 35006 ft | 465 kts | 90° |
| 2026-05-07 23:46 | 38.35230 | -113.15769 | 35032 ft | 465 kts | 90° |
| 2026-05-07 23:46 | 38.34753 | -113.07558 | 35056 ft | 465 kts | 90° |
| 2026-05-07 23:47 | 38.34269 | -112.99394 | 35049 ft | 466 kts | 90° |
| 2026-05-07 23:47 | 38.33772 | -112.91160 | 35037 ft | 466 kts | 90° |
| 2026-05-07 23:48 | 38.33264 | -112.82916 | 35026 ft | 467 kts | 90° |
| 2026-05-07 23:48 | 38.32758 | -112.74678 | 35014 ft | 467 kts | 90° |
| 2026-05-07 23:49 | 38.32253 | -112.66482 | 35004 ft | 468 kts | 90° |
| 2026-05-07 23:49 | 38.31735 | -112.58223 | 35005 ft | 468 kts | 90° |
| 2026-05-07 23:50 | 38.31205 | -112.49957 | 35003 ft | 468 kts | 90° |
| 2026-05-07 23:50 | 38.30671 | -112.41692 | 35024 ft | 469 kts | 90° |
| 2026-05-07 23:51 | 38.30130 | -112.33417 | 35018 ft | 469 kts | 90° |
| 2026-05-07 23:51 | 38.29589 | -112.25192 | 35019 ft | 469 kts | 90° |
| 2026-05-07 23:52 | 38.29040 | -112.16912 | 35036 ft | 469 kts | 90° |
| 2026-05-07 23:52 | 38.28479 | -112.08637 | 35050 ft | 469 kts | 90° |
| 2026-05-07 23:53 | 38.27912 | -112.00357 | 35042 ft | 470 kts | 90° |
| 2026-05-07 23:53 | 38.27349 | -111.92131 | 35048 ft | 470 kts | 90° |
| 2026-05-07 23:54 | 38.26774 | -111.83845 | 35048 ft | 470 kts | 90° |
| 2026-05-07 23:54 | 38.26196 | -111.75555 | 35054 ft | 471 kts | 90° |
| 2026-05-07 23:55 | 38.25611 | -111.67257 | 35050 ft | 471 kts | 91° |
| 2026-05-07 23:55 | 38.25016 | -111.59006 | 35041 ft | 472 kts | 91° |
| 2026-05-07 23:56 | 38.24412 | -111.50693 | 35033 ft | 472 kts | 91° |
| 2026-05-07 23:56 | 38.23806 | -111.42373 | 35032 ft | 472 kts | 91° |
| 2026-05-07 23:57 | 38.23199 | -111.34071 | 35031 ft | 471 kts | 91° |
| 2026-05-07 23:57 | 38.22583 | -111.25780 | 35008 ft | 470 kts | 91° |
| 2026-05-07 23:58 | 38.21963 | -111.17570 | 35006 ft | 469 kts | 91° |
| 2026-05-07 23:58 | 38.21338 | -111.09301 | 34988 ft | 469 kts | 91° |
| 2026-05-07 23:59 | 38.20708 | -111.01038 | 34993 ft | 469 kts | 91° |
| 2026-05-07 23:59 | 38.20072 | -110.92778 | 34990 ft | 469 kts | 91° |
| 2026-05-08 00:00 | 38.19435 | -110.84574 | 34992 ft | 470 kts | 91° |
| 2026-05-08 00:00 | 38.18784 | -110.76313 | 35003 ft | 470 kts | 91° |
| 2026-05-08 00:01 | 38.18125 | -110.68026 | 34983 ft | 471 kts | 91° |
| 2026-05-08 00:01 | 38.17456 | -110.59734 | 34915 ft | 472 kts | 92° |
| 2026-05-08 00:02 | 38.16782 | -110.51445 | 34937 ft | 471 kts | 92° |
| 2026-05-08 00:02 | 38.16114 | -110.43217 | 34949 ft | 471 kts | 92° |
| 2026-05-08 00:03 | 38.15434 | -110.34949 | 34950 ft | 470 kts | 92° |
| 2026-05-08 00:03 | 38.14744 | -110.26687 | 34957 ft | 470 kts | 92° |
| 2026-05-08 00:04 | 38.14057 | -110.18432 | 34956 ft | 470 kts | 92° |
| 2026-05-08 00:04 | 38.13434 | -110.10229 | 34965 ft | 469 kts | 89° |
| 2026-05-08 00:05 | 38.13195 | -110.01972 | 34963 ft | 468 kts | 86° |
| 2026-05-08 00:05 | 38.13111 | -109.93706 | 34956 ft | 468 kts | 86° |
| 2026-05-08 00:06 | 38.12954 | -109.85436 | 34970 ft | 469 kts | 87° |
| 2026-05-08 00:06 | 38.12715 | -109.77152 | 35001 ft | 470 kts | 88° |
| 2026-05-08 00:07 | 38.12453 | -109.68909 | 34983 ft | 471 kts | 88° |
| 2026-05-08 00:07 | 38.12198 | -109.60601 | 34993 ft | 470 kts | 88° |
| 2026-05-08 00:08 | 38.11944 | -109.52304 | 35012 ft | 470 kts | 88° |
| 2026-05-08 00:08 | 38.11684 | -109.44010 | 35033 ft | 470 kts | 88° |
| 2026-05-08 00:09 | 38.11426 | -109.35719 | 35032 ft | 470 kts | 88° |
| 2026-05-08 00:09 | 38.11162 | -109.27475 | 35028 ft | 470 kts | 88° |
| 2026-05-08 00:10 | 38.10892 | -109.19179 | 35031 ft | 471 kts | 88° |
| 2026-05-08 00:10 | 38.10612 | -109.10873 | 35033 ft | 471 kts | 88° |
| 2026-05-08 00:11 | 38.10321 | -109.02563 | 35019 ft | 472 kts | 88° |
| 2026-05-08 00:11 | 38.10669 | -108.94393 | 35010 ft | 462 kts | 73° |
| 2026-05-08 00:12 | 38.12785 | -108.86822 | 35003 ft | 451 kts | 58° |
| 2026-05-08 00:12 | 38.15607 | -108.79692 | 35001 ft | 452 kts | 58° |
| 2026-05-08 00:13 | 38.18417 | -108.72530 | 35004 ft | 453 kts | 58° |
| 2026-05-08 00:13 | 38.21207 | -108.65393 | 35005 ft | 454 kts | 58° |
| 2026-05-08 00:14 | 38.24019 | -108.58196 | 35004 ft | 455 kts | 58° |
| 2026-05-08 00:14 | 38.26830 | -108.50984 | 35014 ft | 455 kts | 58° |
| 2026-05-08 00:15 | 38.29636 | -108.43763 | 35010 ft | 455 kts | 58° |
| 2026-05-08 00:15 | 38.32420 | -108.36578 | 35018 ft | 456 kts | 58° |
| 2026-05-08 00:16 | 38.35221 | -108.29339 | 35033 ft | 456 kts | 58° |
| 2026-05-08 00:16 | 38.38025 | -108.22076 | 35046 ft | 457 kts | 58° |
| 2026-05-08 00:17 | 38.40830 | -108.14797 | 35057 ft | 458 kts | 58° |
| 2026-05-08 00:17 | 38.43629 | -108.07505 | 35072 ft | 458 kts | 58° |
| 2026-05-08 00:18 | 38.46403 | -108.00249 | 35105 ft | 458 kts | 58° |
| 2026-05-08 00:18 | 38.49189 | -107.92922 | 35111 ft | 459 kts | 58° |
| 2026-05-08 00:19 | 38.51958 | -107.85575 | 35107 ft | 459 kts | 58° |
| 2026-05-08 00:19 | 38.54704 | -107.78268 | 34998 ft | 460 kts | 58° |
| 2026-05-08 00:20 | 38.57472 | -107.70902 | 35029 ft | 460 kts | 58° |
| 2026-05-08 00:20 | 38.60237 | -107.63524 | 35003 ft | 460 kts | 58° |
| 2026-05-08 00:21 | 38.62998 | -107.56140 | 35024 ft | 460 kts | 58° |
| 2026-05-08 00:21 | 38.65757 | -107.48750 | 35020 ft | 461 kts | 58° |
| 2026-05-08 00:22 | 38.68520 | -107.41418 | 35041 ft | 461 kts | 58° |
| 2026-05-08 00:22 | 38.71335 | -107.34043 | 35058 ft | 461 kts | 58° |
| 2026-05-08 00:23 | 38.74137 | -107.26653 | 35053 ft | 462 kts | 58° |
| 2026-05-08 00:23 | 38.76453 | -107.20489 | 35040 ft | 462 kts | 58° |
| 2026-05-08 00:24 | 38.79686 | -107.11855 | 35042 ft | 462 kts | 58° |
| 2026-05-08 00:24 | 38.82473 | -107.04416 | 35071 ft | 463 kts | 58° |
| 2026-05-08 00:25 | 38.85260 | -106.96966 | 35066 ft | 464 kts | 58° |
| 2026-05-08 00:25 | 38.88045 | -106.89499 | 35067 ft | 464 kts | 58° |
| 2026-05-08 00:26 | 38.90359 | -106.83283 | 35082 ft | 465 kts | 58° |
| 2026-05-08 00:26 | 38.93136 | -106.75788 | 35110 ft | 465 kts | 58° |
| 2026-05-08 00:27 | 38.96361 | -106.67075 | 35128 ft | 465 kts | 58° |
| 2026-05-08 00:27 | 38.98663 | -106.60829 | 35141 ft | 465 kts | 58° |
| 2026-05-08 00:28 | 39.01430 | -106.53301 | 35180 ft | 465 kts | 58° |
| 2026-05-08 00:28 | 39.04190 | -106.45765 | 35210 ft | 466 kts | 58° |
| 2026-05-08 00:29 | 39.06928 | -106.38262 | 35233 ft | 466 kts | 58° |
| 2026-05-08 00:29 | 39.09677 | -106.30709 | 35271 ft | 466 kts | 58° |
| 2026-05-08 00:30 | 39.12429 | -106.23137 | 35271 ft | 467 kts | 58° |
| 2026-05-08 00:30 | 39.15179 | -106.15554 | 35238 ft | 467 kts | 58° |
| 2026-05-08 00:31 | 39.17898 | -106.08013 | 35213 ft | 468 kts | 58° |
| 2026-05-08 00:31 | 39.20629 | -106.00405 | 35172 ft | 468 kts | 58° |
| 2026-05-08 00:32 | 39.21988 | -105.96609 | 34826 ft | 465 kts | 58° |
| 2026-05-08 00:32 | 39.23344 | -105.92811 | 33270 ft | 469 kts | 59° |
| 2026-05-08 00:32 | 39.24721 | -105.88968 | 31802 ft | 472 kts | 59° |
| 2026-05-08 00:32 | 39.26091 | -105.85150 | 30778 ft | 465 kts | 60° |
| 2026-05-08 00:33 | 39.27440 | -105.81388 | 29730 ft | 459 kts | 60° |
| 2026-05-08 00:33 | 39.28755 | -105.77727 | 28656 ft | 452 kts | 60° |
| 2026-05-08 00:33 | 39.30068 | -105.74075 | 27628 ft | 445 kts | 60° |
| 2026-05-08 00:33 | 39.31354 | -105.70488 | 26892 ft | 433 kts | 60° |
| 2026-05-08 00:34 | 39.32604 | -105.66997 | 26129 ft | 424 kts | 60° |
| 2026-05-08 00:34 | 39.33841 | -105.63572 | 25315 ft | 417 kts | 60° |
| 2026-05-08 00:34 | 39.35071 | -105.60209 | 24556 ft | 411 kts | 60° |
| 2026-05-08 00:34 | 39.36285 | -105.56907 | 23795 ft | 404 kts | 60° |
| 2026-05-08 00:35 | 39.37483 | -105.53651 | 22932 ft | 398 kts | 60° |
| 2026-05-08 00:35 | 39.38655 | -105.50445 | 22277 ft | 388 kts | 60° |
| 2026-05-08 00:35 | 39.39753 | -105.47406 | 22048 ft | 369 kts | 60° |
| 2026-05-08 00:35 | 39.40826 | -105.44430 | 22027 ft | 363 kts | 60° |
| 2026-05-08 00:36 | 39.41984 | -105.41550 | 22029 ft | 358 kts | 52° |
| 2026-05-08 00:36 | 39.43409 | -105.38918 | 22028 ft | 357 kts | 50° |
| 2026-05-08 00:36 | 39.44848 | -105.36301 | 22028 ft | 357 kts | 50° |
| 2026-05-08 00:36 | 39.46285 | -105.33684 | 21985 ft | 356 kts | 49° |
| 2026-05-08 00:37 | 39.47710 | -105.31077 | 21507 ft | 353 kts | 49° |
| 2026-05-08 00:37 | 39.49122 | -105.28479 | 20734 ft | 352 kts | 50° |
| 2026-05-08 00:37 | 39.50523 | -105.25887 | 19948 ft | 351 kts | 50° |
| 2026-05-08 00:38 | 39.53275 | -105.20770 | 18568 ft | 345 kts | 50° |
| 2026-05-08 00:38 | 39.54523 | -105.18127 | 17851 ft | 345 kts | 60° |
| 2026-05-08 00:38 | 39.55553 | -105.15328 | 17130 ft | 342 kts | 60° |
| 2026-05-08 00:38 | 39.56568 | -105.12554 | 16453 ft | 339 kts | 61° |
| 2026-05-08 00:39 | 39.57563 | -105.09824 | 16034 ft | 331 kts | 61° |
| 2026-05-08 00:39 | 39.58552 | -105.07118 | 15845 ft | 332 kts | 61° |
| 2026-05-08 00:39 | 39.59539 | -105.04421 | 15607 ft | 331 kts | 61° |
| 2026-05-08 00:39 | 39.60525 | -105.01730 | 15370 ft | 331 kts | 61° |
| 2026-05-08 00:40 | 39.61500 | -104.99085 | 15187 ft | 328 kts | 61° |
| 2026-05-08 00:40 | 39.62478 | -104.96418 | 14954 ft | 327 kts | 61° |
| 2026-05-08 00:40 | 39.63452 | -104.93764 | 14714 ft | 326 kts | 61° |
| 2026-05-08 00:40 | 39.64419 | -104.91111 | 14485 ft | 326 kts | 61° |
| 2026-05-08 00:41 | 39.65383 | -104.88451 | 14239 ft | 326 kts | 61° |
| 2026-05-08 00:41 | 39.66349 | -104.85787 | 13970 ft | 325 kts | 62° |
| 2026-05-08 00:41 | 39.67310 | -104.83145 | 13721 ft | 323 kts | 62° |
| 2026-05-08 00:41 | 39.68266 | -104.80512 | 13473 ft | 321 kts | 62° |
| 2026-05-08 00:42 | 39.69217 | -104.77973 | 13291 ft | 312 kts | 56° |
| 2026-05-08 00:42 | 39.70486 | -104.75741 | 13015 ft | 304 kts | 42° |
| 2026-05-08 00:42 | 39.71967 | -104.73814 | 12785 ft | 300 kts | 41° |
| 2026-05-08 00:42 | 39.73441 | -104.71901 | 12556 ft | 299 kts | 41° |
| 2026-05-08 00:43 | 39.74907 | -104.69991 | 12331 ft | 298 kts | 41° |
| 2026-05-08 00:43 | 39.76356 | -104.68069 | 12109 ft | 298 kts | 45° |
| 2026-05-08 00:43 | 39.77496 | -104.65812 | 11885 ft | 301 kts | 63° |
| 2026-05-08 00:43 | 39.78122 | -104.63214 | 11675 ft | 302 kts | 79° |
| 2026-05-08 00:44 | 39.78230 | -104.60509 | 11450 ft | 298 kts | 88° |
| 2026-05-08 00:44 | 39.78231 | -104.57841 | 11227 ft | 293 kts | 88° |
| 2026-05-08 00:44 | 39.78239 | -104.55250 | 11013 ft | 288 kts | 87° |
| 2026-05-08 00:44 | 39.78257 | -104.52680 | 10803 ft | 281 kts | 87° |
| 2026-05-08 00:45 | 39.78283 | -104.50178 | 10609 ft | 274 kts | 86° |
| 2026-05-08 00:45 | 39.78310 | -104.47739 | 10451 ft | 266 kts | 86° |
| 2026-05-08 00:45 | 39.78339 | -104.45375 | 10300 ft | 258 kts | 86° |
| 2026-05-08 00:45 | 39.78229 | -104.43086 | 10154 ft | 252 kts | 106° |
| 2026-05-08 00:46 | 39.77368 | -104.41166 | 10053 ft | 246 kts | 140° |
| 2026-05-08 00:46 | 39.75913 | -104.40133 | 10011 ft | 238 kts | 172° |
| 2026-05-08 00:46 | 39.74271 | -104.39867 | 10018 ft | 238 kts | 180° |
| 2026-05-08 00:46 | 39.72666 | -104.39964 | 10003 ft | 230 kts | 203° |
| 2026-05-08 00:47 | 39.71361 | -104.41017 | 10020 ft | 219 kts | 231° |
| 2026-05-08 00:47 | 39.70464 | -104.42579 | 10005 ft | 212 kts | 255° |
| 2026-05-08 00:47 | 39.70269 | -104.44435 | 10025 ft | 208 kts | 274° |
| 2026-05-08 00:47 | 39.70345 | -104.46311 | 10024 ft | 208 kts | 277° |
| 2026-05-08 00:48 | 39.70461 | -104.48189 | 10003 ft | 210 kts | 277° |
| 2026-05-08 00:48 | 39.70583 | -104.50108 | 9561 ft | 213 kts | 277° |
| 2026-05-08 00:48 | 39.70709 | -104.52004 | 9126 ft | 209 kts | 277° |
| 2026-05-08 00:48 | 39.70837 | -104.53867 | 8665 ft | 205 kts | 277° |
| 2026-05-08 00:49 | 39.70957 | -104.55703 | 8216 ft | 203 kts | 277° |
| 2026-05-08 00:49 | 39.71085 | -104.57499 | 7778 ft | 201 kts | 281° |
| 2026-05-08 00:49 | 39.71584 | -104.59092 | 7662 ft | 182 kts | 303° |
| 2026-05-08 00:49 | 39.72212 | -104.60417 | 7612 ft | 163 kts | 302° |
| 2026-05-08 00:50 | 39.72787 | -104.61634 | 7569 ft | 154 kts | 302° |
| 2026-05-08 00:50 | 39.73344 | -104.62809 | 7495 ft | 151 kts | 302° |
| 2026-05-08 00:50 | 39.73896 | -104.63967 | 7357 ft | 150 kts | 303° |
| 2026-05-08 00:50 | 39.74447 | -104.65110 | 7179 ft | 149 kts | 306° |
| 2026-05-08 00:51 | 39.75226 | -104.65947 | 7045 ft | 148 kts | 336° |
| 2026-05-08 00:51 | 39.76256 | -104.66131 | 6916 ft | 155 kts | 356° |
| 2026-05-08 00:51 | 39.77322 | -104.66119 | 6644 ft | 150 kts | 356° |
| 2026-05-08 00:51 | 39.78337 | -104.66107 | 6427 ft | 149 kts | 356° |
| 2026-05-08 00:52 | 39.79375 | -104.66096 | 6230 ft | 148 kts | 358° |
| 2026-05-08 00:52 | 39.80403 | -104.66084 | 6022 ft | 146 kts | 357° |
| 2026-05-08 00:52 | 39.81447 | -104.66060 | 5821 ft | 154 kts | 356° |
| 2026-05-08 00:52 | 39.82516 | -104.66047 | 5589 ft | 153 kts | 356° |
| 2026-05-08 00:53 | 39.83553 | -104.66050 | 5422 ft | 139 kts | 356° |
| 2026-05-08 00:53 | 39.84363 | -104.66040 | 5422 ft | 92 kts | 0° |
| 2026-05-08 00:53 | 39.84835 | -104.66028 | 5401 ft | 55 kts | 359° |
| 2026-05-08 00:53 | 39.85159 | -104.66060 | 5394 ft | 35 kts | 341° |
| 2026-05-08 00:54 | 39.85329 | -104.66183 | 5395 ft | 19 kts | 329° |
| 2026-05-08 00:54 | 39.85445 | -104.66238 | 5392 ft | 18 kts | 358° |
| 2026-05-08 00:54 | 39.85559 | -104.66244 | 5393 ft | 10 kts | 329° |
| 2026-05-08 00:54 | 39.85586 | -104.66343 | 5391 ft | 14 kts | 275° |
| 2026-05-08 00:55 | 39.85583 | -104.66505 | 5387 ft | 19 kts | 269° |
| 2026-05-08 00:55 | 39.85581 | -104.66681 | 5387 ft | 20 kts | 269° |
| 2026-05-08 00:55 | 39.85583 | -104.66856 | 5387 ft | 18 kts | 272° |
| 2026-05-08 00:55 | 39.85559 | -104.67004 | 5386 ft | 17 kts | 214° |
| 2026-05-08 00:56 | 39.85524 | -104.67137 | 5386 ft | 17 kts | 269° |
| 2026-05-08 00:56 | 39.85520 | -104.67291 | 5386 ft | 18 kts | 268° |
| 2026-05-08 00:56 | 39.85519 | -104.67334 | 5386 ft | 0 kts | 268° |
| 2026-05-08 00:57 | 39.85514 | -104.67350 | 5386 ft | 6 kts | 238° |
| 2026-05-08 00:57 | 39.85470 | -104.67352 | 5386 ft | 8 kts | 148° |
| 2026-05-08 00:58 | 39.85443 | -104.67327 | 5385 ft | 3 kts | 144° |